Time;durP1;ratioP1;P1;durP2;ratioP2;P2;SDS_P1;SDS_P2;PMS_P1;PMS_P2;Temp;Humidity;BMP_temperature;BMP_pressure;BME280_temperature;BME280_humidity;BME280_pressure;Samples;Min_cycle;Max_cycle;Signal;HPM_P1;HPM_P2
2022/09/05 00:02:29;;;;;;;7.70;3.60;;;;;;;17.83;96.75;101789.38;5052369;28;20052;-59
2022/09/05 00:05:17;;;;;;;7.40;4.13;;;;;;;17.81;96.99;101795.78;5052105;28;20068;-60
2022/09/05 00:07:53;;;;;;;8.50;3.88;;;;;;;17.76;96.62;101790.81;5048838;28;20060;-59
2022/09/05 00:10:38;;;;;;;8.68;4.15;;;;;;;17.79;96.43;101795.06;5052440;28;20048;-57
2022/09/05 00:13:31;;;;;;;7.18;3.83;;;;;;;17.76;96.01;101797.97;5052029;28;20091;-56
2022/09/05 00:16:22;;;;;;;6.33;3.60;;;;;;;17.73;96.65;101793.75;5050891;28;20053;-58
2022/09/05 00:19:09;;;;;;;7.75;3.67;;;;;;;17.72;96.35;101787.59;5052136;28;20064;-56
2022/09/05 00:22:13;;;;;;;7.43;3.45;;;;;;;17.70;96.76;101783.34;5051657;28;20048;-56
2022/09/05 00:25:21;;;;;;;6.30;3.50;;;;;;;17.63;95.86;101790.97;5051735;28;20480;-59
2022/09/05 00:28:10;;;;;;;7.10;3.78;;;;;;;17.61;97.22;101787.59;5050407;28;20061;-59
2022/09/05 00:31:12;;;;;;;6.55;3.80;;;;;;;17.56;98.16;101784.44;5051821;28;20385;-55
2022/09/05 00:34:15;;;;;;;6.18;3.60;;;;;;;17.55;98.63;101788.09;5052000;28;20052;-59
2022/09/05 00:36:47;;;;;;;6.72;3.95;;;;;;;17.54;98.00;101784.56;5052012;28;20110;-59
2022/09/05 00:39:20;;;;;;;6.78;3.38;;;;;;;17.54;97.21;101779.25;5051931;28;20431;-55
2022/09/05 00:41:51;;;;;;;6.78;3.90;;;;;;;17.51;97.35;101783.97;5051797;28;20072;-53
2022/09/05 00:44:22;;;;;;;7.32;3.45;;;;;;;17.46;98.38;101778.19;5051467;28;20056;-59
2022/09/05 00:47:00;;;;;;;9.40;3.97;;;;;;;17.46;99.12;101778.19;5051681;28;20044;-57
2022/09/05 00:49:37;;;;;;;6.78;3.90;;;;;;;17.42;99.40;101779.41;5051815;28;20613;-56
2022/09/05 00:52:12;;;;;;;7.68;4.30;;;;;;;17.38;99.73;101771.66;5051514;28;20102;-59
2022/09/05 00:54:58;;;;;;;7.43;3.85;;;;;;;17.32;100.00;101780.13;5051586;28;20049;-59
2022/09/05 00:57:43;;;;;;;9.13;3.80;;;;;;;17.31;99.68;101772.28;5051389;28;20045;-56
2022/09/05 01:00:15;;;;;;;7.13;3.83;;;;;;;17.28;99.17;101775.19;5050265;28;20045;-56
2022/09/05 01:03:08;;;;;;;9.25;4.13;;;;;;;17.21;99.50;101772.16;5050048;28;20060;-59
2022/09/05 01:05:49;;;;;;;7.82;3.72;;;;;;;17.17;99.96;101776.03;5051728;28;20053;-60
2022/09/05 01:08:27;;;;;;;7.88;4.35;;;;;;;17.17;100.00;101773.38;5051188;28;20053;-55
2022/09/05 01:11:04;;;;;;;8.18;4.60;;;;;;;17.16;100.00;101775.16;5051834;28;20053;-55
2022/09/05 01:13:40;;;;;;;8.75;4.53;;;;;;;17.13;100.00;101779.88;5055514;28;20052;-59
2022/09/05 01:16:21;;;;;;;10.93;5.43;;;;;;;17.13;100.00;101779.88;5055380;28;20055;-56
2022/09/05 01:18:59;;;;;;;11.45;6.28;;;;;;;17.11;100.00;101781.81;5055353;28;20064;-59
2022/09/05 01:21:54;;;;;;;10.40;7.15;;;;;;;17.16;100.00;101787.59;5055251;28;20049;-60
2022/09/05 01:24:45;;;;;;;12.02;7.65;;;;;;;17.15;100.00;101783.25;5055323;28;20388;-58
2022/09/05 01:27:57;;;;;;;13.13;8.30;;;;;;;17.16;100.00;101785.78;5055354;28;20076;-60
2022/09/05 01:30:52;;;;;;;14.02;8.88;;;;;;;17.17;100.00;101784.81;5055160;28;20049;-59
2022/09/05 01:33:32;;;;;;;10.10;7.72;;;;;;;17.16;100.00;101783.13;5054964;28;20041;-56
2022/09/05 01:36:20;;;;;;;12.13;8.65;;;;;;;17.14;100.00;101786.88;5055564;28;20040;-55
2022/09/05 01:38:59;;;;;;;12.88;7.35;;;;;;;17.13;100.00;101785.19;5055199;28;20107;-56
2022/09/05 01:41:57;;;;;;;12.02;8.07;;;;;;;17.08;100.00;101782.06;5054651;28;20099;-60
2022/09/05 01:44:53;;;;;;;12.40;7.78;;;;;;;17.05;100.00;101788.44;5054846;28;20052;-55
2022/09/05 01:47:40;;;;;;;11.50;7.15;;;;;;;17.02;100.00;101781.56;5054903;28;20449;-55
2022/09/05 01:50:27;;;;;;;9.23;6.65;;;;;;;16.98;100.00;101780.09;5054649;28;20045;-56
2022/09/05 01:53:12;;;;;;;10.30;6.68;;;;;;;16.92;100.00;101785.91;5054590;28;20049;-59
2022/09/05 01:55:56;;;;;;;10.98;6.47;;;;;;;16.86;100.00;101783.69;5054596;28;20047;-54
2022/09/05 01:58:55;;;;;;;9.57;6.43;;;;;;;16.84;100.00;101777.66;5054769;28;20385;-60
2022/09/05 02:01:35;;;;;;;9.20;6.53;;;;;;;16.82;100.00;101780.41;5054498;28;20045;-59
2022/09/05 02:04:33;;;;;;;10.50;6.32;;;;;;;16.79;100.00;101777.16;5054341;28;20049;-56
2022/09/05 02:07:06;;;;;;;11.35;6.78;;;;;;;16.71;100.00;101775.94;5054298;28;20388;-55
2022/09/05 02:10:28;;;;;;;12.65;6.85;;;;;;;16.71;100.00;101775.94;5086680;28;20049;-56
2022/09/05 02:13:03;;;;;;;9.27;6.80;;;;;;;16.69;100.00;101777.03;5047268;28;20063;-59
2022/09/05 02:15:42;;;;;;;9.60;6.50;;;;;;;16.72;100.00;101782.94;5054295;28;20041;-60
2022/09/05 02:18:39;;;;;;;11.25;6.90;;;;;;;16.66;100.00;101783.41;5054438;28;20733;-56
2022/09/05 02:21:15;;;;;;;12.02;6.82;;;;;;;16.63;100.00;101773.00;5054112;28;20056;-59
2022/09/05 02:23:48;;;;;;;11.23;6.50;;;;;;;16.62;100.00;101781.94;5053589;28;20515;-54
2022/09/05 02:26:18;;;;;;;;;;;;;;;16.57;100.00;101784.09;5054602;28;20044;-59
2022/09/05 02:28:52;;;;;;;12.07;6.70;;;;;;;16.54;100.00;101784.34;5054074;28;19944;-55
2022/09/05 02:31:29;;;;;;;10.02;6.40;;;;;;;16.55;100.00;101786.88;5053859;28;20053;-59
2022/09/05 02:34:08;;;;;;;10.82;6.68;;;;;;;16.55;100.00;101786.88;5053779;28;20076;-53
2022/09/05 02:36:43;;;;;;;12.57;7.30;;;;;;;16.53;100.00;101780.81;5054166;28;20045;-56
2022/09/05 02:39:19;;;;;;;11.73;7.00;;;;;;;16.48;100.00;101785.63;5053755;28;20045;-60
2022/09/05 02:42:20;;;;;;;12.43;7.10;;;;;;;16.49;100.00;101782.03;5053412;28;20075;-56
2022/09/05 02:45:18;;;;;;;9.95;7.07;;;;;;;16.49;100.00;101776.72;5053672;28;20140;-56
2022/09/05 02:48:07;;;;;;;10.27;6.95;;;;;;;16.44;100.00;101778.03;5053725;28;20044;-59
2022/09/05 02:50:56;;;;;;;11.55;7.45;;;;;;;16.41;100.00;101775.59;5054056;28;20171;-60
2022/09/05 02:53:49;;;;;;;11.07;8.20;;;;;;;16.43;100.00;101778.97;5053487;28;20053;-56
2022/09/05 02:56:52;;;;;;;11.48;8.32;;;;;;;16.40;100.00;101780.06;5052479;28;20049;-56
2022/09/05 02:59:57;;;;;;;17.10;10.77;;;;;;;16.46;100.00;101773.47;5053742;28;20041;-59
2022/09/05 03:02:31;;;;;;;16.15;10.05;;;;;;;16.41;100.00;101778.25;5053230;28;20041;-57
2022/09/05 03:05:09;;;;;;;12.95;10.18;;;;;;;16.39;100.00;101778.38;5053397;28;20481;-55
2022/09/05 03:08:01;;;;;;;13.52;9.68;;;;;;;16.38;100.00;101785.47;5053730;28;20530;-59
2022/09/05 03:11:02;;;;;;;14.10;9.15;;;;;;;16.38;100.00;101784.63;5053494;28;20099;-57
2022/09/05 03:14:07;;;;;;;12.25;8.88;;;;;;;16.34;100.00;101784.00;5032500;28;20127;-59
2022/09/05 03:17:13;;;;;;;15.25;8.80;;;;;;;16.31;100.00;101781.59;5046685;28;20053;-59
2022/09/05 03:20:19;;;;;;;11.35;8.88;;;;;;;16.28;100.00;101779.19;5051817;28;20045;-55
2022/09/05 03:23:14;;;;;;;13.15;9.27;;;;;;;16.28;100.00;101776.53;5052946;28;20102;-59
2022/09/05 03:26:23;;;;;;;13.18;9.15;;;;;;;16.22;100.00;101779.63;5053019;28;20053;-57
2022/09/05 03:29:19;;;;;;;11.88;9.45;;;;;;;16.22;100.00;101784.94;5051506;28;20076;-59
2022/09/05 03:32:07;;;;;;;12.18;10.13;;;;;;;16.17;100.00;101776.47;5052792;28;20044;-54
2022/09/05 03:34:58;;;;;;;16.58;10.88;;;;;;;16.12;100.00;101778.63;5052140;28;20086;-55
2022/09/05 03:37:50;;;;;;;13.48;10.48;;;;;;;16.12;100.00;101781.28;5053018;28;20059;-55
2022/09/05 03:40:48;;;;;;;15.27;11.88;;;;;;;16.10;100.00;101784.06;5052583;28;20053;-59
2022/09/05 03:43:46;;;;;;;17.60;11.98;;;;;;;16.12;100.00;101783.94;5052600;28;20451;-54
2022/09/05 03:46:35;;;;;;;16.02;11.90;;;;;;;16.11;100.00;101792.84;5052585;28;20518;-55
2022/09/05 03:49:42;;;;;;;16.98;11.88;;;;;;;16.10;100.00;101793.81;5030198;28;20084;-59
2022/09/05 03:52:48;;;;;;;15.60;11.60;;;;;;;16.08;100.00;101799.22;4971530;28;20070;-58
2022/09/05 03:55:54;;;;;;;14.80;11.75;;;;;;;16.05;100.00;101800.28;5050972;28;20186;-55
2022/09/05 03:59:20;;;;;;;18.08;12.18;;;;;;;16.02;100.00;101797.00;5052435;28;20045;-59
2022/09/05 04:01:54;;;;;;;16.67;12.82;;;;;;;16.01;100.00;101793.53;5022050;28;20053;-58
2022/09/05 04:04:43;;;;;;;;;;;;;;;16.03;100.00;101791.63;5052796;28;20045;-58
2022/09/05 04:07:42;;;;;;;15.93;11.55;;;;;;;16.00;100.00;101789.16;5052399;28;19921;-58
2022/09/05 04:10:33;;;;;;;14.55;11.45;;;;;;;15.97;100.00;101792.06;5052044;28;20099;-56
2022/09/05 04:13:16;;;;;;;15.63;12.67;;;;;;;15.98;100.00;101788.44;5052251;28;20542;-57
2022/09/05 04:15:50;;;;;;;17.77;11.85;;;;;;;15.94;100.00;101789.63;5052167;28;20445;-54
2022/09/05 04:18:28;;;;;;;15.77;11.70;;;;;;;15.88;100.00;101792.72;5052168;28;20040;-58
2022/09/05 04:21:06;;;;;;;13.93;11.43;;;;;;;15.85;100.00;101787.63;5050703;28;20045;-56
2022/09/05 04:23:46;;;;;;;16.70;11.13;;;;;;;15.83;100.00;101790.41;5052026;28;20048;-55
2022/09/05 04:26:27;;;;;;;17.90;11.68;;;;;;;15.82;100.00;101793.19;5052095;28;20511;-59
2022/09/05 04:29:13;;;;;;;14.70;12.05;;;;;;;15.80;100.00;101795.94;5052116;28;20049;-59
2022/09/05 04:31:48;;;;;;;15.65;11.90;;;;;;;15.78;100.00;101794.31;5051809;28;20124;-55
2022/09/05 04:34:50;;;;;;;16.30;11.98;;;;;;;15.72;100.00;101799.09;5051609;28;20048;-60
2022/09/05 04:37:36;;;;;;;17.80;13.10;;;;;;;15.67;100.00;101801.22;5052131;28;20496;-55
2022/09/05 04:40:38;;;;;;;15.32;12.45;;;;;;;15.65;100.00;101797.00;5050392;28;20256;-58
2022/09/05 04:43:12;;;;;;;16.48;12.30;;;;;;;15.61;100.00;101800.81;5051692;28;20132;-55
2022/09/05 04:45:46;;;;;;;16.30;12.15;;;;;;;15.61;100.00;101803.47;5052786;28;20056;-56
2022/09/05 04:48:20;;;;;;;15.30;12.13;;;;;;;15.59;100.00;101806.25;5055643;28;20049;-58
2022/09/05 04:51:07;;;;;;;13.63;11.35;;;;;;;15.57;100.00;101808.16;5055735;28;20136;-58
2022/09/05 04:53:59;;;;;;;15.07;11.60;;;;;;;15.56;100.00;101811.78;5055847;28;20488;-59
2022/09/05 04:56:35;;;;;;;14.70;11.98;;;;;;;15.55;100.00;101815.38;5055653;28;20045;-57
2022/09/05 04:59:10;;;;;;;16.60;12.88;;;;;;;15.50;100.00;101810.41;5055999;28;20115;-58
2022/09/05 05:02:05;;;;;;;15.85;11.88;;;;;;;15.49;100.00;101818.47;5055935;28;20052;-58
2022/09/05 05:05:01;;;;;;;14.55;11.60;;;;;;;15.49;100.00;101821.97;5055461;28;20049;-53
2022/09/05 05:07:57;;;;;;;16.45;12.35;;;;;;;15.46;100.00;101823.97;5055554;28;20056;-58
2022/09/05 05:10:33;;;;;;;13.88;10.77;;;;;;;15.44;100.00;101821.44;5055588;28;20053;-56
2022/09/05 05:13:28;;;;;;;16.67;12.38;;;;;;;15.42;100.00;101822.47;5055482;28;20049;-59
2022/09/05 05:16:20;;;;;;;16.55;12.35;;;;;;;15.42;100.00;101823.34;5053946;28;20053;-58
2022/09/05 05:19:16;;;;;;;16.20;13.00;;;;;;;15.44;100.00;101826.72;5053982;28;20052;-59
2022/09/05 05:21:51;;;;;;;17.55;12.98;;;;;;;15.43;100.00;101825.03;5055523;28;20561;-58
2022/09/05 05:24:23;;;;;;;16.60;13.10;;;;;;;15.45;100.00;101822.28;5055536;28;20057;-59
2022/09/05 05:27:01;;;;;;;19.63;13.85;;;;;;;15.45;100.00;101823.13;5055426;28;20041;-59
2022/09/05 05:29:43;;;;;;;19.65;14.07;;;;;;;15.45;100.00;101823.13;5055270;28;20049;-59
2022/09/05 05:32:18;;;;;;;20.85;14.05;;;;;;;15.47;100.00;101830.97;5055086;28;20049;-55
2022/09/05 05:35:11;;;;;;;17.02;12.95;;;;;;;15.47;100.00;101823.03;5054965;28;20037;-54
2022/09/05 05:37:45;;;;;;;17.77;14.70;;;;;;;15.48;100.00;101816.78;5055067;28;20051;-58
2022/09/05 05:40:24;;;;;;;20.08;15.20;;;;;;;15.50;100.00;101822.78;5054897;28;20049;-52
2022/09/05 05:42:53;;;;;;;21.20;15.23;;;;;;;15.51;100.00;101825.34;5054811;28;20102;-54
2022/09/05 05:45:27;;;;;;;21.20;16.27;;;;;;;15.55;100.00;101818.84;5054507;28;20052;-55
2022/09/05 05:48:03;;;;;;;21.60;16.25;;;;;;;15.59;100.00;101822.16;5055009;28;20041;-58
2022/09/05 05:50:49;;;;;;;19.33;16.05;;;;;;;15.63;100.00;101815.66;5054641;28;20139;-58
2022/09/05 05:53:29;;;;;;;18.38;16.48;;;;;;;15.64;100.00;101824.50;5054837;28;20053;-58
2022/09/05 05:56:36;;;;;;;22.52;15.95;;;;;;;15.70;100.00;101824.88;5053853;28;20041;-52
2022/09/05 05:59:56;;;;;;;23.80;15.35;;;;;;;15.77;100.00;101832.41;5053705;28;20048;-58
2022/09/05 06:02:59;;;;;;;20.75;16.27;;;;;;;15.80;100.00;101827.78;5031985;28;20140;-59
2022/09/05 06:06:08;;;;;;;23.38;17.20;;;;;;;15.91;100.00;101829.66;5031555;28;20049;-55
2022/09/05 06:08:57;;;;;;;23.63;17.00;;;;;;;16.01;100.00;101833.31;5054169;28;20056;-55
2022/09/05 06:12:20;;;;;;;23.15;17.95;;;;;;;16.13;100.00;101838.69;5053941;28;20128;-58
2022/09/05 06:15:30;;;;;;;26.67;18.52;;;;;;;16.25;100.00;101832.47;5054083;28;20532;-55
2022/09/05 06:18:38;;;;;;;24.55;20.35;;;;;;;16.36;100.00;101837.84;5054229;28;20041;-58
2022/09/05 06:21:50;;;;;;;28.98;21.70;;;;;;;16.54;100.00;101832.97;5053944;28;20049;-55
2022/09/05 06:25:14;;;;;;;24.48;20.90;;;;;;;16.70;100.00;101830.00;5053939;28;20049;-58
2022/09/05 06:28:08;;;;;;;28.75;21.02;;;;;;;16.81;100.00;101833.66;5053970;28;20098;-56
2022/09/05 06:30:53;;;;;;;28.55;19.63;;;;;;;16.93;100.00;101842.53;5054089;28;20044;-59
2022/09/05 06:33:56;;;;;;;24.38;19.55;;;;;;;17.12;100.00;101847.28;5052520;28;20130;-56
2022/09/05 06:36:47;;;;;;;22.42;19.98;;;;;;;17.23;100.00;101849.94;5053890;28;20056;-55
2022/09/05 06:39:25;;;;;;;20.80;18.45;;;;;;;17.30;100.00;101848.53;5053731;28;20056;-59
2022/09/05 06:42:14;;;;;;;20.20;16.73;;;;;;;17.46;100.00;101852.63;5053888;28;20053;-54
2022/09/05 06:45:16;;;;;;;19.65;17.63;;;;;;;17.58;100.00;101847.19;5053654;28;20041;-59
2022/09/05 06:48:00;;;;;;;;;;;;;;;17.74;100.00;101848.63;5054482;28;20060;-58
2022/09/05 06:50:51;;;;;;;18.45;16.45;;;;;;;17.84;100.00;101852.25;5053713;28;19921;-60
2022/09/05 06:54:16;;;;;;;20.13;17.77;;;;;;;18.02;100.00;101849.09;5053722;28;20354;-57
2022/09/05 06:57:02;;;;;;;21.17;18.08;;;;;;;18.22;100.00;101853.63;5053164;28;20371;-59
2022/09/05 07:00:11;;;;;;;20.30;15.93;;;;;;;18.35;100.00;101850.84;5052273;28;20388;-59
2022/09/05 07:03:10;;;;;;;19.60;15.98;;;;;;;18.51;100.00;101846.88;5046223;28;20057;-61
2022/09/05 07:05:45;;;;;;;21.00;17.13;;;;;;;18.73;100.00;101849.47;5054010;28;20037;-60
2022/09/05 07:08:25;;;;;;;18.65;16.02;;;;;;;18.87;100.00;101852.75;5053357;28;20056;-59
2022/09/05 07:11:16;;;;;;;20.58;18.27;;;;;;;19.03;100.00;101855.88;5053459;28;20127;-56
2022/09/05 07:13:56;;;;;;;20.25;16.95;;;;;;;19.20;100.00;101865.06;5053347;28;20551;-59
2022/09/05 07:16:36;;;;;;;21.65;17.08;;;;;;;19.36;100.00;101859.25;5051227;28;20049;-57
2022/09/05 07:19:25;;;;;;;20.08;17.65;;;;;;;19.64;100.00;101869.34;5050605;28;20127;-58
2022/09/05 07:22:13;;;;;;;20.10;16.27;;;;;;;19.74;100.00;101864.88;5052984;28;20051;-57
2022/09/05 07:25:05;;;;;;;20.67;15.77;;;;;;;19.91;100.00;101861.59;5052097;28;20068;-62
2022/09/05 07:27:42;;;;;;;20.85;16.05;;;;;;;20.09;99.25;101868.94;5052803;28;20047;-57
2022/09/05 07:30:32;;;;;;;20.13;16.42;;;;;;;20.31;98.30;101867.84;5052678;28;20118;-62
2022/09/05 07:33:03;;;;;;;19.45;16.60;;;;;;;20.47;96.67;101863.78;5052920;28;20435;-57
2022/09/05 07:35:34;;;;;;;19.27;16.13;;;;;;;20.68;96.38;101866.28;5053206;28;20087;-58
2022/09/05 07:38:14;;;;;;;18.55;15.52;;;;;;;20.94;92.56;101867.44;5052741;28;20504;-63
2022/09/05 07:40:52;;;;;;;21.50;15.77;;;;;;;21.11;91.37;101867.69;5052779;28;20560;-58
2022/09/05 07:43:25;;;;;;;18.95;16.13;;;;;;;21.23;90.65;101865.69;5052715;28;20044;-55
2022/09/05 07:46:09;;;;;;;15.95;14.18;;;;;;;21.44;92.25;101858.25;5052423;28;20059;-56
2022/09/05 07:48:43;;;;;;;18.73;15.52;;;;;;;21.68;91.11;101859.63;5052611;28;20118;-59
2022/09/05 07:51:19;;;;;;;17.42;14.45;;;;;;;21.99;88.32;101861.97;5052624;28;20239;-63
2022/09/05 07:54:18;;;;;;;16.95;14.38;;;;;;;22.37;85.36;101859.19;5052052;28;20075;-57
2022/09/05 07:57:09;;;;;;;22.02;14.25;;;;;;;22.55;83.57;101853.81;5050749;28;20049;-57
2022/09/05 08:00:07;;;;;;;19.08;12.77;;;;;;;22.80;81.93;101865.59;5050983;28;20072;-58
2022/09/05 08:02:59;;;;;;;15.07;13.10;;;;;;;23.05;81.01;101861.22;5052285;28;20438;-62
2022/09/05 08:05:36;;;;;;;15.60;12.55;;;;;;;23.33;79.01;101863.78;5051935;28;20083;-62
2022/09/05 08:08:09;;;;;;;16.10;12.20;;;;;;;23.54;79.32;101859.84;5050658;28;20056;-62
2022/09/05 08:10:44;;;;;;;13.35;11.02;;;;;;;23.70;77.06;101869.84;5052094;28;20045;-62
2022/09/05 08:13:50;;;;;;;12.25;9.73;;;;;;;23.96;74.52;101862.53;5051956;28;20447;-58
2022/09/05 08:16:22;;;;;;;11.45;8.30;;;;;;;24.03;72.23;101857.34;5051709;28;20041;-59
2022/09/05 08:18:56;;;;;;;11.98;7.70;;;;;;;24.27;72.46;101858.44;5052125;28;20484;-58
2022/09/05 08:21:30;;;;;;;11.45;7.22;;;;;;;24.43;70.63;101858.44;5051532;28;20048;-59
2022/09/05 08:24:08;;;;;;;10.60;6.70;;;;;;;24.61;70.16;101858.28;5052066;28;20068;-58
2022/09/05 08:26:45;;;;;;;9.40;6.22;;;;;;;24.76;68.90;101852.22;5051953;28;20496;-62
2022/09/05 08:29:25;;;;;;;9.27;5.88;;;;;;;24.97;68.09;101851.69;5051285;28;20183;-61
2022/09/05 08:32:02;;;;;;;9.98;5.82;;;;;;;25.23;67.09;101853.31;5051338;28;20554;-62
2022/09/05 08:34:40;;;;;;;9.25;6.60;;;;;;;25.49;64.28;101861.16;5051421;28;20523;-61
2022/09/05 08:37:17;;;;;;;9.27;5.90;;;;;;;25.55;65.01;101862.31;5051229;28;20037;-59
2022/09/05 08:39:52;;;;;;;10.40;5.13;;;;;;;25.86;65.88;101858.81;5052111;28;20361;-62
2022/09/05 08:42:47;;;;;;;9.20;5.47;;;;;;;25.97;62.79;101858.41;5051840;28;20053;-61
2022/09/05 08:45:40;;;;;;;9.40;4.95;;;;;;;26.20;59.80;101855.75;5051911;28;20071;-62
2022/09/05 08:48:45;;;;;;;9.00;4.60;;;;;;;26.42;59.61;101862.19;5051672;28;20317;-58
2022/09/05 08:51:27;;;;;;;9.32;4.40;;;;;;;26.69;59.88;101859.91;5051944;28;20037;-60
2022/09/05 08:54:12;;;;;;;9.30;4.85;;;;;;;26.96;58.00;101855.81;5051772;28;20103;-61
2022/09/05 08:56:49;;;;;;;8.27;4.03;;;;;;;27.17;55.92;101851.53;5051848;28;20040;-61
2022/09/05 08:59:39;;;;;;;5.25;3.30;;;;;;;27.22;54.21;101848.28;5051532;28;20037;-61
2022/09/05 09:02:56;;;;;;;6.05;3.17;;;;;;;27.33;52.58;101845.13;5051493;28;20052;-59
2022/09/05 09:06:06;;;;;;;5.90;3.00;;;;;;;27.42;53.62;101838.63;5051635;28;20414;-61
2022/09/05 09:09:13;;;;;;;6.28;3.05;;;;;;;27.67;54.67;101841.00;5051585;28;20511;-61
2022/09/05 09:11:49;;;;;;;7.00;3.50;;;;;;;27.99;52.23;101831.59;5043588;28;20115;-61
2022/09/05 09:14:36;;;;;;;4.88;2.50;;;;;;;28.27;51.35;101835.44;5051539;28;20041;-62
2022/09/05 09:17:18;;;;;;;7.10;2.30;;;;;;;28.56;51.15;101839.00;5051305;28;20048;-61
2022/09/05 09:19:52;;;;;;;5.82;2.28;;;;;;;28.90;48.33;101832.81;5051533;28;20075;-59
2022/09/05 09:22:36;;;;;;;4.45;2.10;;;;;;;29.12;48.60;101832.75;5051155;28;20400;-59
2022/09/05 09:25:09;;;;;;;7.63;2.40;;;;;;;29.33;46.68;101834.56;5051327;28;20100;-63
2022/09/05 09:28:08;;;;;;;5.18;2.60;;;;;;;29.49;46.46;101828.78;5051557;28;20045;-60
2022/09/05 09:31:02;;;;;;;4.97;2.40;;;;;;;29.53;43.42;101825.66;5051523;28;20052;-61
2022/09/05 09:33:49;;;;;;;5.72;2.03;;;;;;;29.64;42.24;101820.50;5053223;28;20049;-61
2022/09/05 09:36:44;;;;;;;5.10;2.05;;;;;;;29.96;43.68;101820.81;5053861;28;20057;-61
2022/09/05 09:39:27;;;;;;;6.60;2.05;;;;;;;30.26;42.10;101825.84;5055090;28;20151;-62
2022/09/05 09:42:32;;;;;;;5.00;2.00;;;;;;;30.28;40.05;101814.78;5055147;28;20492;-59
2022/09/05 09:45:28;;;;;;;6.28;2.17;;;;;;;30.48;38.48;101815.66;5053308;28;20056;-61
2022/09/05 09:48:36;;;;;;;5.03;1.70;;;;;;;30.33;36.17;101812.28;5054927;28;20124;-60
2022/09/05 09:51:30;;;;;;;5.07;1.80;;;;;;;30.49;37.18;101809.19;5054870;28;20094;-58
2022/09/05 09:54:17;;;;;;;7.05;1.50;;;;;;;30.75;36.15;101812.09;5054625;28;20544;-61
2022/09/05 09:57:03;;;;;;;3.40;1.52;;;;;;;30.98;36.63;101807.00;5054473;28;20044;-61
2022/09/05 10:00:05;;;;;;;3.03;1.50;;;;;;;31.16;35.70;101809.06;5054300;28;20082;-60
2022/09/05 10:03:01;;;;;;;5.68;1.73;;;;;;;31.46;34.39;101805.81;5054257;28;20056;-58
2022/09/05 10:06:32;;;;;;;4.28;1.77;;;;;;;31.52;33.92;101795.94;5054274;28;20080;-61
2022/09/05 10:09:31;;;;;;;3.60;1.67;;;;;;;31.80;34.12;101790.16;5054586;28;20041;-62
2022/09/05 10:13:06;;;;;;;6.38;1.70;;;;;;;32.25;33.79;101777.53;5054454;28;20622;-61
2022/09/05 10:15:52;;;;;;;3.85;1.60;;;;;;;32.42;32.73;101784.06;5045276;28;20254;-58
2022/09/05 10:18:37;;;;;;;2.55;1.35;;;;;;;32.67;30.81;101777.75;5054162;28;20045;-61
2022/09/05 10:21:31;;;;;;;4.85;1.70;;;;;;;32.82;30.82;101777.44;5054111;28;20109;-59
2022/09/05 10:24:34;;;;;;;5.20;1.48;;;;;;;32.84;29.32;101775.28;5054150;28;20044;-59
2022/09/05 10:27:31;;;;;;;4.30;1.33;;;;;;;32.96;30.39;101772.66;5052559;28;20059;-62
2022/09/05 10:30:08;;;;;;;3.53;1.48;;;;;;;33.25;29.95;101778.41;5054215;28;20102;-59
2022/09/05 10:32:44;;;;;;;3.50;1.40;;;;;;;33.41;28.63;101776.94;5054044;28;20527;-59
2022/09/05 10:35:35;;;;;;;3.90;1.50;;;;;;;33.57;29.46;101769.97;5054279;28;20487;-59
2022/09/05 10:38:10;;;;;;;;;;;;;;;33.23;28.15;101770.41;5054428;28;20049;-61
2022/09/05 10:40:42;;;;;;;3.55;1.50;;;;;;;33.48;27.83;101761.31;5053831;28;19969;-59
2022/09/05 10:43:34;;;;;;;2.28;1.38;;;;;;;33.61;28.23;101760.28;5053302;28;20115;-61
2022/09/05 10:46:14;;;;;;;3.03;1.38;;;;;;;33.89;26.45;101758.84;5053802;28;20045;-60
2022/09/05 10:49:10;;;;;;;4.47;1.50;;;;;;;34.04;26.11;101748.28;5053546;28;20090;-59
2022/09/05 10:51:47;;;;;;;3.55;1.42;;;;;;;33.87;26.04;101753.63;5053608;28;20049;-59
2022/09/05 10:54:34;;;;;;;3.35;1.30;;;;;;;34.10;25.72;101750.09;5053767;28;20079;-60
2022/09/05 10:57:14;;;;;;;3.53;1.60;;;;;;;34.32;25.28;101742.16;5053562;28;20064;-60
2022/09/05 11:00:03;;;;;;;2.13;1.27;;;;;;;34.45;25.25;101743.81;5053786;28;20500;-60
2022/09/05 11:02:56;;;;;;;3.05;1.27;;;;;;;34.53;24.85;101743.44;5053391;28;20045;-62
2022/09/05 11:05:29;;;;;;;1.20;1.10;;;;;;;34.72;24.60;101739.75;5053385;28;20380;-59
2022/09/05 11:08:05;;;;;;;3.65;1.20;;;;;;;34.77;24.49;101740.69;5053396;28;20388;-60
2022/09/05 11:10:37;;;;;;;1.63;1.00;;;;;;;34.78;23.81;101738.78;5053503;28;20431;-59
2022/09/05 11:13:15;;;;;;;5.33;1.50;;;;;;;34.93;24.36;101730.09;5053459;28;20067;-59
2022/09/05 11:16:03;;;;;;;2.65;1.27;;;;;;;34.96;23.91;101727.72;5053726;28;20041;-61
2022/09/05 11:18:55;;;;;;;3.92;1.45;;;;;;;35.17;23.71;101734.41;5052989;28;20500;-62
2022/09/05 11:21:53;;;;;;;2.50;1.25;;;;;;;35.67;24.64;101724.66;5053129;28;20049;-62
2022/09/05 11:24:49;;;;;;;4.10;1.40;;;;;;;35.39;23.07;101736.47;5050135;28;20068;-62
2022/09/05 11:27:26;;;;;;;2.85;1.20;;;;;;;35.41;23.50;101728.00;5051821;28;20518;-61
2022/09/05 11:29:58;;;;;;;2.30;1.25;;;;;;;35.48;23.38;101729.53;5052974;28;20052;-61
2022/09/05 11:33:07;;;;;;;4.43;1.38;;;;;;;35.28;23.36;101724.47;5052863;28;20120;-58
2022/09/05 11:36:00;;;;;;;3.03;1.35;;;;;;;35.78;22.86;101724.81;5053124;28;20076;-61
2022/09/05 11:39:05;;;;;;;2.15;1.27;;;;;;;36.15;22.41;101721.59;5052914;28;20180;-61
2022/09/05 11:42:34;;;;;;;2.90;1.30;;;;;;;35.93;23.08;101729.72;5052678;28;20095;-60
2022/09/05 11:45:28;;;;;;;2.97;1.33;;;;;;;36.23;22.95;101721.19;5017181;28;20492;-60
2022/09/05 11:48:38;;;;;;;2.17;1.15;;;;;;;36.65;23.14;101722.56;5052805;28;20048;-60
2022/09/05 11:51:50;;;;;;;2.47;1.30;;;;;;;36.99;22.38;101723.28;5051564;28;20053;-61
2022/09/05 11:54:50;;;;;;;3.45;1.52;;;;;;;37.01;21.12;101717.53;5052096;28;20064;-59
2022/09/05 11:57:37;;;;;;;1.38;1.10;;;;;;;37.35;21.33;101717.38;5052228;28;20069;-61
2022/09/05 12:00:13;;;;;;;2.05;1.10;;;;;;;37.38;20.39;101709.44;5052276;28;20049;-59
2022/09/05 12:03:38;;;;;;;3.85;1.20;;;;;;;37.00;21.16;101699.44;5051558;28;20133;-60
2022/09/05 12:07:04;;;;;;;2.95;1.20;;;;;;;37.81;20.27;101708.72;5052595;28;20052;-59
2022/09/05 12:10:08;;;;;;;6.18;1.27;;;;;;;37.75;20.76;101707.00;5052652;28;20048;-59
2022/09/05 12:13:16;;;;;;;3.10;1.17;;;;;;;37.54;20.28;101715.88;5052456;28;20073;-60
2022/09/05 12:15:51;;;;;;;3.00;1.45;;;;;;;37.80;19.89;101715.31;5052953;28;20143;-59
2022/09/05 12:18:42;;;;;;;2.85;1.20;;;;;;;37.36;19.75;101713.53;5052380;28;20033;-61
2022/09/05 12:21:26;;;;;;;3.40;1.30;;;;;;;37.55;21.79;101705.72;5052361;28;20177;-60
2022/09/05 12:24:02;;;;;;;2.63;1.17;;;;;;;37.68;21.80;101699.00;5052612;28;20041;-61
2022/09/05 12:26:58;;;;;;;3.67;1.10;;;;;;;38.20;22.52;101700.19;5052506;28;20428;-61
2022/09/05 12:29:53;;;;;;;3.42;1.35;;;;;;;37.67;19.74;101697.34;5052040;28;20037;-59
2022/09/05 12:32:27;;;;;;;2.47;1.10;;;;;;;38.31;20.83;101695.59;5052483;28;20049;-60
2022/09/05 12:35:30;;;;;;;3.15;1.20;;;;;;;38.19;19.24;101699.38;5052841;28;20040;-60
2022/09/05 12:38:34;;;;;;;2.28;1.00;;;;;;;38.29;19.84;101700.56;5052446;28;20499;-60
2022/09/05 12:41:26;;;;;;;2.42;1.15;;;;;;;38.42;19.35;101700.03;5052293;28;20127;-61
2022/09/05 12:44:48;;;;;;;4.73;1.30;;;;;;;37.80;18.33;101699.66;5051885;28;20432;-60
2022/09/05 12:47:21;;;;;;;2.83;1.45;;;;;;;38.10;18.36;101695.47;5051723;28;20485;-60
2022/09/05 12:49:59;;;;;;;3.67;1.30;;;;;;;37.62;18.16;101694.53;5052056;28;20060;-60
2022/09/05 12:52:41;;;;;;;3.65;1.30;;;;;;;38.10;18.58;101700.97;5052014;28;20049;-60
2022/09/05 12:55:15;;;;;;;4.20;1.30;;;;;;;38.06;18.90;101697.09;5051808;28;20071;-59